Time;durP1;ratioP1;P1;durP2;ratioP2;P2;SDS_P1;SDS_P2;PMS_P1;PMS_P2;Temp;Humidity;BMP_temperature;BMP_pressure;BME280_temperature;BME280_humidity;BME280_pressure;Samples;Min_cycle;Max_cycle;Signal;HPM_P1;HPM_P2
2022/08/26 00:00:46;;;;;;;;;2.00;1.00;;;;;25.97;49.00;101235.94;5053381;28;45875;-66
2022/08/26 00:03:14;;;;;;;;;1.00;1.00;;;;;25.97;49.23;101242.16;5053292;28;45450;-65
2022/08/26 00:05:43;;;;;;;;;2.25;2.00;;;;;26.07;49.44;101249.72;5056038;28;45497;-65
2022/08/26 00:08:13;;;;;;;;;1.50;1.00;;;;;25.93;49.28;101237.03;5046091;28;45304;-65
2022/08/26 00:10:40;;;;;;;;;7.00;7.00;;;;;26.01;49.45;101251.78;5020817;28;48065;-64
2022/08/26 00:13:09;;;;;;;;;14.00;14.00;;;;;25.98;49.65;101260.03;5053282;28;45363;-64
2022/08/26 00:15:35;;;;;;;;;23.00;22.33;;;;;25.86;49.22;101233.81;5053211;28;45556;-64
2022/08/26 00:18:00;;;;;;;;;13.33;11.67;;;;;25.97;49.64;101254.72;5052951;28;45566;-64
2022/08/26 00:20:30;;;;;;;;;12.33;9.67;;;;;25.80;49.56;101228.78;5046283;28;46024;-64
2022/08/26 00:22:56;;;;;;;;;7.00;7.00;;;;;25.91;50.02;101253.25;5037436;28;45492;-64
2022/08/26 00:25:22;;;;;;;;;3.75;3.75;;;;;25.91;49.52;101255.94;5042519;28;45359;-64
2022/08/26 00:27:48;;;;;;;;;3.00;3.00;;;;;25.90;49.81;101247.97;5052768;28;45818;-64
2022/08/26 00:30:18;;;;;;;;;2.25;2.25;;;;;25.90;49.29;101251.50;5057088;28;45753;-63
2022/08/26 00:32:44;;;;;;;;;1.50;1.50;;;;;25.87;49.70;101249.00;5056251;28;45659;-63
2022/08/26 00:35:11;;;;;;;;;2.25;2.25;;;;;25.88;49.58;101264.13;5056473;28;45494;-63
2022/08/26 00:37:38;;;;;;;;;3.00;3.00;;;;;25.88;49.96;101264.13;5060129;28;45502;-63
2022/08/26 00:40:06;;;;;;;;;1.00;1.00;;;;;25.86;49.96;101263.34;5059409;28;45467;-63
2022/08/26 00:42:32;;;;;;;;;2.00;2.00;;;;;25.85;49.88;101266.09;5056351;28;45306;-64
2022/08/26 00:45:00;;;;;;;;;1.00;1.00;;;;;25.83;50.10;101257.25;5056311;28;45488;-64
2022/08/26 00:47:34;;;;;;;;;1.00;1.00;;;;;25.83;50.16;101259.94;5056300;28;45503;-63
2022/08/26 00:50:03;;;;;;;;;1.00;1.00;;;;;25.78;50.17;101257.50;5056021;28;45353;-64
2022/08/26 00:52:29;;;;;;;;;1.75;1.75;;;;;25.81;49.79;101274.28;5056087;28;45747;-64
2022/08/26 00:55:01;;;;;;;;;1.50;1.00;;;;;25.83;50.06;101274.22;5057704;28;45434;-63
2022/08/26 00:57:27;;;;;;;;;2.00;2.00;;;;;25.83;50.27;101281.41;5060574;28;45434;-64
2022/08/26 00:59:57;;;;;;;;;2.00;2.00;;;;;25.79;50.15;101265.47;5056758;28;45515;-64
2022/08/26 01:02:23;;;;;;;;;0.00;0.00;;;;;25.81;50.30;101278.78;5056669;28;45592;-65
2022/08/26 01:04:53;;;;;;;;;2.00;2.00;;;;;25.78;49.99;101274.47;5056306;28;45651;-63
2022/08/26 01:07:20;;;;;;;;;2.00;1.75;;;;;25.80;50.04;101266.34;5056148;28;45389;-65
2022/08/26 01:09:46;;;;;;;;;2.25;1.25;;;;;25.79;49.93;101269.94;5056289;28;45494;-64
2022/08/26 01:12:13;;;;;;;;;1.00;1.00;;;;;25.75;50.63;101263.91;5055776;28;45501;-64
2022/08/26 01:14:39;;;;;;;;;2.00;1.50;;;;;25.69;50.28;101253.47;5055880;28;45614;-64
2022/08/26 01:17:07;;;;;;;;;2.00;1.00;;;;;25.76;50.67;101259.38;5058560;28;45491;-63
2022/08/26 01:19:50;;;;;;;;;2.25;1.75;;;;;25.72;50.22;101261.38;5060128;28;46068;-66
2022/08/26 01:22:15;;;;;;;;;4.00;3.00;;;;;25.70;50.40;101257.91;5040046;28;45637;-63
2022/08/26 01:24:42;;;;;;;;;2.50;2.50;;;;;25.65;50.82;101251.94;5054369;28;45417;-65
2022/08/26 01:27:12;;;;;;;;;2.75;2.75;;;;;25.63;50.56;101247.56;5056355;28;45432;-67
2022/08/26 01:29:41;;;;;;;;;2.00;2.00;;;;;25.62;50.62;101248.53;5058963;28;45380;-64
2022/08/26 01:32:10;;;;;;;;;2.50;1.00;;;;;25.65;50.69;101262.66;5059019;28;45335;-70
2022/08/26 01:34:37;;;;;;;;;2.75;2.00;;;;;25.63;50.54;101256.50;5055943;28;45726;-73
2022/08/26 01:37:19;;;;;;;;;2.50;2.00;;;;;25.52;50.77;101242.78;5058265;28;45458;-77
2022/08/26 01:39:48;;;;;;;;;2.00;2.00;;;;;25.61;50.92;101258.41;5059321;28;45419;-64
2022/08/26 01:42:17;;;;;;;;;1.00;1.00;;;;;25.59;50.63;101261.16;5059688;28;45492;-64
2022/08/26 01:44:50;;;;;;;;;2.00;2.00;;;;;25.56;51.06;101258.63;5058659;28;45349;-63
2022/08/26 01:47:19;;;;;;;;;2.00;2.00;;;;;25.54;50.88;101273.94;5056190;28;45576;-64
2022/08/26 01:49:48;;;;;;;;;3.00;3.00;;;;;25.51;50.69;101249.09;5056289;28;47940;-65
2022/08/26 01:52:25;;;;;;;;;3.00;2.00;;;;;25.48;51.19;101257.28;5055420;28;45384;-65
2022/08/26 01:54:52;;;;;;;;;4.25;3.00;;;;;25.37;50.99;101242.63;5055487;28;45574;-64
2022/08/26 01:57:23;;;;;;;;;2.25;2.25;;;;;25.53;50.94;101263.28;5055285;28;45291;-65
2022/08/26 01:59:51;;;;;;;;;2.00;2.00;;;;;25.52;51.31;101262.41;5054293;28;46615;-63
2022/08/26 02:02:20;;;;;;;;;2.00;2.00;;;;;25.52;51.27;101265.09;5053743;28;46672;-63
2022/08/26 02:04:52;;;;;;;;;3.00;3.00;;;;;25.48;51.14;101266.19;5054525;28;45526;-63
2022/08/26 02:07:20;;;;;;;;;3.67;3.67;;;;;25.48;50.88;101271.56;5054520;28;45537;-65
2022/08/26 02:09:46;;;;;;;;;2.25;2.25;;;;;25.47;51.05;101274.34;5055207;28;45535;-67
2022/08/26 02:12:15;;;;;;;;;3.00;3.00;;;;;25.36;51.41;101254.28;5054716;28;45449;-64
2022/08/26 02:14:48;;;;;;;;;2.75;2.00;;;;;25.43;51.47;101268.25;5055049;28;45836;-64
2022/08/26 02:17:16;;;;;;;;;2.00;2.00;;;;;25.46;51.21;101284.22;5058381;28;45464;-65
2022/08/26 02:19:46;;;;;;;;;3.00;3.00;;;;;25.17;51.33;101227.56;5054813;28;47098;-67
2022/08/26 02:22:17;;;;;;;;;2.00;2.00;;;;;25.36;50.81;101265.03;5054690;28;45661;-64
2022/08/26 02:24:51;;;;;;;;;3.75;2.50;;;;;25.42;51.09;101271.91;5054148;28;45537;-65
2022/08/26 02:27:20;;;;;;;;;4.00;4.00;;;;;25.35;51.25;101274.03;5054685;28;45493;-74
2022/08/26 02:29:56;;;;;;;;;3.00;3.00;;;;;25.35;51.07;101276.72;5053587;28;45505;-75
2022/08/26 02:32:22;;;;;;;;;4.50;3.75;;;;;25.29;51.41;101268.09;5058284;28;46105;-77
2022/08/26 02:34:47;;;;;;;;;3.00;2.25;;;;;25.35;51.55;101274.03;5055699;28;45312;-74
2022/08/26 02:37:13;;;;;;;;;3.00;3.00;;;;;25.29;51.48;101263.59;5033306;28;45530;-77
2022/08/26 02:39:41;;;;;;;;;5.25;3.75;;;;;25.34;51.47;101283.03;5053784;28;45493;-75
2022/08/26 02:42:07;;;;;;;;;2.75;2.00;;;;;25.31;51.68;101284.97;5055104;28;45539;-64
2022/08/26 02:44:33;;;;;;;;;7.00;7.00;;;;;25.30;51.57;101283.25;5058350;28;45524;-66
2022/08/26 02:46:59;;;;;;;;;5.33;4.00;;;;;25.05;51.85;101241.56;5059266;28;45229;-66
2022/08/26 02:49:27;;;;;;;;;2.00;2.00;;;;;25.28;51.88;101285.16;5038730;28;47661;-69
2022/08/26 02:51:52;;;;;;;;;4.50;4.50;;;;;25.22;51.50;101280.94;5053189;28;45544;-67
2022/08/26 02:54:22;;;;;;;;;4.00;4.00;;;;;25.25;51.60;101288.84;5054604;28;45288;-70
2022/08/26 02:56:49;;;;;;;;;3.00;3.00;;;;;25.24;51.47;101276.38;5058123;28;45552;-70
2022/08/26 02:59:14;;;;;;;;;4.25;3.00;;;;;25.24;51.89;101288.91;5054327;28;46225;-65
2022/08/26 03:01:41;;;;;;;;;3.00;3.00;;;;;25.24;52.05;101279.06;5053679;28;45512;-64
2022/08/26 03:04:10;;;;;;;;;4.25;3.25;;;;;25.19;51.42;101281.09;5055843;28;45398;-65
2022/08/26 03:06:36;;;;;;;;;4.00;4.00;;;;;25.25;51.63;101286.19;5058712;28;45340;-67
2022/08/26 03:09:02;;;;;;;;;4.50;3.50;;;;;25.09;51.51;101261.06;5055546;28;46034;-65
2022/08/26 03:11:29;;;;;;;;;5.00;4.00;;;;;25.11;52.04;101267.22;5035847;28;45880;-66
2022/08/26 03:13:57;;;;;;;;;4.33;4.00;;;;;25.22;51.62;101282.75;5039660;28;45525;-64
2022/08/26 03:16:23;;;;;;;;;4.33;3.67;;;;;25.18;51.58;101280.25;5054381;28;45399;-64
2022/08/26 03:18:49;;;;;;;;;5.67;5.00;;;;;25.16;51.83;101279.41;5036421;28;46323;-67
2022/08/26 03:21:17;;;;;;;;;4.67;3.00;;;;;25.16;52.00;101279.41;5054195;28;45458;-69
2022/08/26 03:23:44;;;;;;;;;5.00;5.00;;;;;25.17;51.90;101275.81;5053877;28;45506;-65
2022/08/26 03:26:12;;;;;;;;;3.67;3.67;;;;;25.05;51.59;101256.78;5053810;28;45923;-63
2022/08/26 03:30:38;;;;;;;;;6.67;4.67;;;;;25.07;51.57;101271.84;5052232;28;47225;-66
2022/08/26 03:31:27;;;;;;;;;6.25;4.50;;;;;25.13;51.82;101278.72;5053927;28;45788;-65
2022/08/26 03:33:53;;;;;;;;;5.00;4.00;;;;;25.16;51.86;101284.78;5056546;28;45327;-65
2022/08/26 03:36:23;;;;;;;;;3.67;3.67;;;;;25.08;51.59;101270.91;5055119;28;45414;-66
2022/08/26 03:38:48;;;;;;;;;4.67;4.67;;;;;25.15;52.07;101280.38;5035856;28;47793;-67
2022/08/26 03:41:14;;;;;;;;;4.00;4.00;;;;;24.97;52.28;101249.13;5057689;28;45249;-67
2022/08/26 03:43:40;;;;;;;;;5.00;5.00;;;;;25.13;52.20;101271.53;5055765;28;45370;-64
2022/08/26 03:46:08;;;;;;;;;7.00;4.00;;;;;25.12;52.37;101280.50;5055042;28;45774;-66
2022/08/26 03:48:34;;;;;;;;;5.33;4.00;;;;;25.11;52.06;101275.25;5053462;28;46420;-65
2022/08/26 03:51:00;;;;;;;;;5.33;4.00;;;;;25.00;52.59;101257.00;5057458;28;45479;-65
2022/08/26 03:53:26;;;;;;;;;5.00;5.00;;;;;25.11;52.08;101284.16;5053966;28;45561;-64
2022/08/26 03:55:52;;;;;;;;;6.00;5.67;;;;;25.12;51.94;101279.66;5054430;28;45522;-65
2022/08/26 03:58:19;;;;;;;;;3.00;3.00;;;;;24.98;52.46;101261.56;5054060;28;46364;-64
2022/08/26 04:00:44;;;;;;;;;4.00;4.00;;;;;25.10;52.00;101278.84;5054420;28;45411;-68
2022/08/26 04:03:10;;;;;;;;;4.33;4.33;;;;;25.11;52.26;101275.25;5057149;28;45256;-66
2022/08/26 04:05:36;;;;;;;;;3.67;3.67;;;;;25.05;52.06;101276.41;5055541;28;45485;-66
2022/08/26 04:08:04;;;;;;;;;6.00;4.67;;;;;25.10;52.35;101277.03;5054673;28;46036;-67
2022/08/26 04:10:31;;;;;;;;;6.33;5.33;;;;;25.00;52.46;101258.84;5055030;28;45619;-65
2022/08/26 04:12:58;;;;;;;;;4.33;4.33;;;;;25.11;52.49;101275.25;5054876;28;45449;-64
2022/08/26 04:15:24;;;;;;;;;4.67;4.67;;;;;25.10;52.24;101273.50;5056756;28;45798;-66
2022/08/26 04:17:49;;;;;;;;;4.33;3.33;;;;;25.08;52.68;101276.28;5055398;28;46452;-66
2022/08/26 04:20:17;;;;;;;;;3.00;3.00;;;;;25.00;52.25;101261.50;5054066;28;45532;-65
2022/08/26 04:22:44;;;;;;;;;4.00;4.00;;;;;24.97;52.38;101260.72;5053956;28;45355;-64
2022/08/26 04:25:10;;;;;;;;;5.00;5.00;;;;;24.95;52.16;101257.25;5055236;28;45471;-65
2022/08/26 04:27:36;;;;;;;;;5.33;4.00;;;;;25.00;52.55;101267.72;5038172;28;46261;-65
2022/08/26 04:30:03;;;;;;;;;4.33;4.33;;;;;25.06;52.09;101279.97;5053658;28;45311;-68
2022/08/26 04:32:29;;;;;;;;;4.33;4.33;;;;;25.08;52.36;101284.31;5053612;28;45555;-65
2022/08/26 04:34:55;;;;;;;;;4.67;4.67;;;;;25.06;52.25;101280.84;5055175;28;45513;-79
2022/08/26 04:37:20;;;;;;;;;5.67;4.67;;;;;25.06;52.39;101280.84;5058208;28;45406;-71
2022/08/26 04:39:50;;;;;;;;;5.00;5.00;;;;;25.01;52.46;101271.28;5071047;28;45287;-65
2022/08/26 04:42:16;;;;;;;;;8.33;5.33;;;;;25.08;52.87;101287.00;5058310;28;45468;-69
2022/08/26 04:44:41;;;;;;;;;4.67;4.67;;;;;24.97;52.72;101273.25;5054276;28;45714;-70
2022/08/26 04:47:07;;;;;;;;;6.00;6.00;;;;;25.07;52.72;101292.41;5053185;28;46237;-66
2022/08/26 04:49:32;;;;;;;;;5.50;5.00;;;;;25.06;52.84;101290.69;5053202;28;45448;-65
2022/08/26 04:51:58;;;;;;;;;5.67;5.33;;;;;24.89;52.96;101268.28;5053652;28;45307;-69
2022/08/26 04:54:25;;;;;;;;;7.33;5.33;;;;;24.96;53.04;101285.78;5034971;28;45619;-67
2022/08/26 04:56:50;;;;;;;;;5.33;5.33;;;;;24.83;53.07;101268.56;5052135;28;45677;-66
2022/08/26 04:59:17;;;;;;;;;5.33;5.33;;;;;24.82;52.87;101271.31;5052796;28;45819;-65
2022/08/26 05:01:49;;;;;;;;;8.67;7.00;;;;;24.95;53.11;101302.78;5052104;28;45441;-68
2022/08/26 05:04:15;;;;;;;;;5.00;5.00;;;;;24.90;53.03;101291.44;5052590;28;45540;-65
2022/08/26 05:06:41;;;;;;;;;5.67;5.00;;;;;24.95;52.98;101308.16;5033806;28;47692;-71
2022/08/26 05:09:06;;;;;;;;;7.33;7.33;;;;;24.94;53.25;101301.06;5052385;28;45459;-69
2022/08/26 05:11:32;;;;;;;;;5.00;5.00;;;;;24.94;53.30;101314.47;5054582;28;45471;-76
2022/08/26 05:13:58;;;;;;;;;9.00;6.67;;;;;24.85;53.37;101300.66;5053794;28;45437;-77
2022/08/26 05:16:24;;;;;;;;;11.00;8.33;;;;;24.83;53.27;101300.72;5055280;28;45476;-77
2022/08/26 05:18:51;;;;;;;;;7.00;5.33;;;;;24.63;53.52;101266.88;5056224;28;45478;-75
2022/08/26 05:21:19;;;;;;;;;7.33;7.33;;;;;24.86;53.31;101318.47;5060317;28;45271;-63
2022/08/26 05:23:46;;;;;;;;;10.00;8.00;;;;;24.69;53.56;101293.34;5055971;28;45540;-64
2022/08/26 05:26:12;;;;;;;;;9.00;7.33;;;;;24.81;53.47;101332.06;5055530;28;46114;-64
2022/08/26 05:28:41;;;;;;;;;8.00;7.00;;;;;24.58;53.79;101302.84;5055278;28;45460;-64
2022/08/26 05:31:16;;;;;;;;;7.00;7.00;;;;;24.77;53.58;101330.47;5031443;28;45656;-66
2022/08/26 05:33:42;;;;;;;;;8.00;6.00;;;;;24.77;53.89;101333.16;5055011;28;45358;-65
2022/08/26 05:36:11;;;;;;;;;7.00;5.67;;;;;24.82;53.82;101338.28;5041016;28;45706;-65
2022/08/26 05:38:37;;;;;;;;;6.67;6.00;;;;;24.73;53.27;101321.72;5055250;28;45661;-66
2022/08/26 05:41:03;;;;;;;;;6.33;5.00;;;;;24.80;53.47;101330.34;5055295;28;45462;-65
2022/08/26 05:43:29;;;;;;;;;7.67;6.67;;;;;24.80;53.40;101333.03;5055565;28;45772;-63
2022/08/26 05:46:15;;;;;;;;;6.00;6.00;;;;;25.05;53.03;101335.38;5087703;27;45411;-64
2022/08/26 05:48:41;;;;;;;;;11.33;9.00;;;;;24.91;53.25;101349.44;5070466;28;45429;-70
2022/08/26 05:51:08;;;;;;;;;5.67;5.67;;;;;24.86;53.48;101348.78;5072586;28;45563;-74
2022/08/26 05:53:36;;;;;;;;;6.33;6.33;;;;;24.72;53.08;101319.97;5054520;27;45471;-73
2022/08/26 05:56:02;;;;;;;;;5.67;5.67;;;;;24.91;53.08;101346.75;5050173;28;45767;-75
2022/08/26 05:58:28;;;;;;;;;7.33;7.33;;;;;24.91;53.43;101351.25;5051676;28;45573;-66
2022/08/26 06:01:15;;;;;;;;;7.00;7.00;;;;;24.83;53.10;101335.56;5078226;27;45575;-66
2022/08/26 06:03:45;;;;;;;;;6.00;6.00;;;;;24.95;53.29;101347.50;5057041;28;45489;-65
2022/08/26 06:06:17;;;;;;;;;8.00;7.00;;;;;24.91;53.27;101341.38;5053345;28;45331;-65
2022/08/26 06:08:43;;;;;;;;;9.00;6.00;;;;;24.89;53.18;101331.69;5057557;28;45656;-65
2022/08/26 06:11:12;;;;;;;;;6.67;6.67;;;;;25.00;52.94;101340.09;5056555;28;45402;-75
2022/08/26 06:13:39;;;;;;;;;8.33;6.33;;;;;25.00;53.06;101355.31;5055182;28;45533;-74
2022/08/26 06:16:08;;;;;;;;;7.67;7.33;;;;;24.98;53.21;101342.84;5056299;28;46074;-70
2022/08/26 06:18:38;;;;;;;;;9.67;9.67;;;;;24.95;53.01;101358.22;5056780;28;45418;-66
2022/08/26 06:21:37;;;;;;;;;8.33;8.00;;;;;24.85;53.37;101349.75;5065225;28;45388;-66
2022/08/26 06:26:54;;;;;;;;;8.33;8.00;;;;;24.82;53.13;101354.38;5054974;28;45532;-72
2022/08/26 06:29:23;;;;;;;;;9.67;8.33;;;;;24.82;53.17;101349.91;5050407;28;45701;-70
2022/08/26 06:31:50;;;;;;;;;9.00;9.00;;;;;24.82;53.18;101354.38;5061617;27;45342;-63
2022/08/26 06:34:16;;;;;;;;;12.00;11.33;;;;;24.64;53.39;101324.00;5063718;28;45507;-67
2022/08/26 06:36:43;;;;;;;;;12.33;9.33;;;;;24.73;53.18;101345.84;5063999;28;45427;-74
2022/08/26 06:39:12;;;;;;;;;8.33;8.33;;;;;24.67;53.18;101347.94;5061853;28;45286;-72
2022/08/26 06:41:39;;;;;;;;;8.00;8.00;;;;;24.63;53.15;101339.19;5063189;27;45703;-75
2022/08/26 06:44:07;;;;;;;;;6.33;4.33;;;;;24.74;52.85;101357.41;5065407;27;45353;-67
2022/08/26 06:46:35;;;;;;;;;7.00;7.00;;;;;24.73;53.05;101355.69;5072870;27;45966;-66
2022/08/26 06:49:01;;;;;;;;;8.00;8.00;;;;;24.70;52.95;101363.84;5056721;28;45979;-66
2022/08/26 06:51:31;;;;;;;;;7.00;6.33;;;;;24.68;52.90;101350.56;5069774;28;45462;-70
2022/08/26 06:54:00;;;;;;;;;6.00;6.00;;;;;24.78;52.57;101353.66;5070756;27;45649;-64
2022/08/26 06:56:32;;;;;;;;;7.00;7.00;;;;;24.79;52.20;101352.69;5073011;27;46053;-67
2022/08/26 06:58:58;;;;;;;;;5.33;5.33;;;;;24.89;52.31;101347.78;5062642;28;45516;-74
2022/08/26 07:01:33;;;;;;;;;9.00;6.33;;;;;25.01;51.60;101341.84;5069917;28;45401;-67
2022/08/26 07:04:02;;;;;;;;;10.00;7.00;;;;;25.20;51.30;101352.56;5064104;28;45441;-75
2022/08/26 07:06:28;;;;;;;;;7.00;7.00;;;;;25.26;51.38;101343.34;5064652;28;45804;-65
2022/08/26 07:09:03;;;;;;;;;5.67;5.33;;;;;25.37;51.38;101344.53;5057360;28;45619;-66
2022/08/26 07:11:29;;;;;;;;;6.00;6.00;;;;;25.49;50.86;101350.22;5040926;28;45438;-67
2022/08/26 07:13:57;;;;;;;;;6.67;6.33;;;;;25.43;50.39;101323.72;5071970;28;45434;-65
2022/08/26 07:16:24;;;;;;;;;8.00;6.33;;;;;25.56;50.37;101348.97;5072331;27;45758;-66
2022/08/26 07:18:51;;;;;;;;;9.00;6.00;;;;;25.37;50.08;101306.13;5057732;28;45435;-67
2022/08/26 07:21:17;;;;;;;;;6.00;6.00;;;;;25.51;50.11;101338.47;5050700;28;45424;-64
2022/08/26 07:23:44;;;;;;;;;4.00;4.00;;;;;25.61;50.50;101341.56;5055515;28;45450;-67
2022/08/26 07:26:35;;;;;;;;;5.00;5.00;;;;;25.64;50.02;101352.13;5055654;28;46238;-66
2022/08/26 07:29:02;;;;;;;;;7.00;7.00;;;;;25.68;50.24;101358.19;5052316;28;45489;-66
2022/08/26 07:31:31;;;;;;;;;6.00;6.00;;;;;25.65;49.92;101347.59;5056715;28;45319;-67
2022/08/26 07:33:57;;;;;;;;;4.75;4.75;;;;;25.58;49.94;101347.94;5057513;28;45507;-68
2022/08/26 07:36:24;;;;;;;;;5.00;5.00;;;;;25.65;50.04;101353.88;5074743;28;45803;-71
2022/08/26 07:38:51;;;;;;;;;5.33;5.33;;;;;25.68;49.70;101359.06;5073029;28;45752;-65
2022/08/26 07:41:19;;;;;;;;;5.00;5.00;;;;;25.68;49.74;101358.19;5075466;27;45396;-65
2022/08/26 07:43:45;;;;;;;;;6.33;6.00;;;;;25.69;49.71;101354.56;5057707;28;45732;-64
2022/08/26 07:46:17;;;;;;;;;9.00;8.00;;;;;25.75;49.97;101355.13;5056880;28;45365;-64
2022/08/26 07:48:44;;;;;;;;;6.33;6.33;;;;;25.81;49.72;101357.47;5075018;27;45463;-65
2022/08/26 07:51:10;;;;;;;;;8.33;7.00;;;;;25.87;49.35;101352.78;5075180;27;46180;-66
2022/08/26 07:53:36;;;;;;;;;6.00;6.00;;;;;25.94;49.00;101359.56;5072549;27;45338;-65
2022/08/26 07:56:01;;;;;;;;;6.25;6.25;;;;;25.96;48.52;101360.31;5070935;28;46101;-65
2022/08/26 07:58:27;;;;;;;;;9.33;8.33;;;;;25.91;48.54;101343.59;5075802;28;45520;-66
2022/08/26 08:00:53;;;;;;;;;6.50;5.00;;;;;25.63;48.85;101290.47;5074074;27;45394;-66
2022/08/26 08:03:19;;;;;;;;;7.00;6.00;;;;;25.84;48.49;101328.75;5050701;28;45612;-69
2022/08/26 08:05:45;;;;;;;;;5.00;5.00;;;;;26.05;48.61;101353.63;5039585;28;46693;-66
2022/08/26 08:08:10;;;;;;;;;5.50;5.00;;;;;26.07;47.95;101352.56;5053535;28;45638;-74
2022/08/26 08:10:36;;;;;;;;;6.00;5.25;;;;;26.08;48.34;101348.06;5054873;28;45339;-69
2022/08/26 08:13:05;;;;;;;;;7.50;6.25;;;;;26.25;48.15;101363.31;5055461;28;45793;-66
2022/08/26 08:15:32;;;;;;;;;6.25;5.75;;;;;26.32;47.33;101362.03;5054905;28;46425;-67
2022/08/26 08:17:58;;;;;;;;;12.33;11.33;;;;;26.18;47.88;101355.56;5054808;28;45508;-67
2022/08/26 08:20:24;;;;;;;;;5.75;5.75;;;;;26.16;47.71;101365.50;5059438;28;45415;-66
2022/08/26 08:22:51;;;;;;;;;5.33;5.00;;;;;26.16;47.72;101357.47;5052371;28;45556;-66
2022/08/26 08:25:18;;;;;;;;;6.25;6.25;;;;;26.20;47.72;101352.81;5059037;28;45705;-67
2022/08/26 08:27:48;;;;;;;;;6.00;6.00;;;;;26.17;47.74;101351.16;5054900;28;45773;-67
2022/08/26 08:30:17;;;;;;;;;7.00;6.25;;;;;26.30;47.22;101345.13;5054264;28;45753;-67
2022/08/26 08:32:43;;;;;;;;;6.00;6.00;;;;;26.49;47.10;101361.09;5054904;28;45809;-67
2022/08/26 08:35:12;;;;;;;;;6.00;6.00;;;;;26.65;46.70;101356.66;5070092;27;45614;-69
2022/08/26 08:37:39;;;;;;;;;7.00;6.50;;;;;26.85;46.23;101358.22;5075131;27;45532;-73
2022/08/26 08:40:06;;;;;;;;;7.75;7.75;;;;;26.85;46.16;101356.38;5075098;28;45350;-71
2022/08/26 08:42:41;;;;;;;;;7.33;7.33;;;;;26.84;46.08;101362.72;5061537;28;45533;-66
2022/08/26 08:45:12;;;;;;;;;6.75;6.75;;;;;26.85;46.30;101355.50;5075975;27;45405;-66
2022/08/26 08:47:49;;;;;;;;;6.50;6.50;;;;;26.83;45.84;101357.41;5058328;28;45700;-66
2022/08/26 08:50:27;;;;;;;;;6.00;6.00;;;;;26.88;45.78;101349.97;5075005;28;45785;-68
2022/08/26 08:53:21;;;;;;;;;7.00;6.75;;;;;26.88;45.81;101347.28;5057582;28;45401;-67
2022/08/26 08:55:57;;;;;;;;;8.00;6.25;;;;;27.00;45.18;101353.78;5070895;28;46451;-74
2022/08/26 08:58:48;;;;;;;;;8.00;6.75;;;;;26.98;45.29;101355.69;5049485;28;45421;-72
2022/08/26 09:01:28;;;;;;;;;8.50;7.00;;;;;26.85;45.67;101353.69;5061062;28;45724;-65
2022/08/26 09:04:16;;;;;;;;;7.67;7.67;;;;;26.61;46.15;101345.19;5075900;28;45430;-65
2022/08/26 09:06:44;;;;;;;;;10.25;9.50;;;;;26.64;46.29;101360.28;5075465;28;45353;-68
2022/08/26 09:09:35;;;;;;;;;9.00;8.50;;;;;26.62;46.62;101356.78;5064116;28;45426;-71
2022/08/26 09:12:03;;;;;;;;;8.25;7.50;;;;;26.45;46.46;101336.22;5036411;28;45503;-66
2022/08/26 09:14:30;;;;;;;;;7.00;7.00;;;;;26.61;46.58;101353.25;5056116;28;45868;-68
2022/08/26 09:17:31;;;;;;;;;8.00;8.00;;;;;26.69;46.64;101354.63;5057688;28;46065;-67
2022/08/26 09:20:30;;;;;;;;;11.50;11.00;;;;;26.94;45.76;101349.63;5051036;28;45322;-66
2022/08/26 09:22:56;;;;;;;;;7.33;7.33;;;;;27.27;44.64;101349.53;5048000;28;45617;-66
2022/08/26 09:25:24;;;;;;;;;9.25;8.50;;;;;27.26;44.53;101325.41;5053643;28;45426;-67
2022/08/26 09:27:52;;;;;;;;;9.00;9.00;;;;;27.33;43.99;101332.16;5053629;28;45394;-66
2022/08/26 09:30:31;;;;;;;;;7.67;7.67;;;;;27.49;43.80;101338.34;5053755;28;45779;-71
2022/08/26 09:33:08;;;;;;;;;8.33;7.33;;;;;27.63;43.50;101340.22;5054052;28;45568;-69
2022/08/26 09:35:40;;;;;;;;;5.75;5.75;;;;;27.72;43.27;101338.81;5055472;28;45346;-71
2022/08/26 09:38:24;;;;;;;;;9.50;7.75;;;;;27.68;43.43;101335.44;5075214;28;45393;-67
2022/08/26 09:41:05;;;;;;;;;6.25;6.25;;;;;27.49;43.39;101334.81;5056179;28;45658;-67
2022/08/26 09:43:31;;;;;;;;;6.00;4.50;;;;;27.36;43.81;101315.84;5059487;28;45791;-67
2022/08/26 09:46:09;;;;;;;;;8.00;8.00;;;;;27.47;43.85;101334.88;5055160;28;45373;-67
2022/08/26 09:48:38;;;;;;;;;7.00;7.00;;;;;27.41;43.74;101329.03;5068232;28;45595;-71
2022/08/26 09:51:31;;;;;;;;;8.25;8.00;;;;;27.48;43.54;101338.47;5076261;27;45361;-78
2022/08/26 09:54:00;;;;;;;;;9.00;8.50;;;;;27.48;43.38;101341.16;5053258;28;45369;-70
2022/08/26 09:56:37;;;;;;;;;9.00;8.75;;;;;27.48;43.56;101336.63;5075588;28;45498;-69
2022/08/26 09:59:09;;;;;;;;;8.00;7.50;;;;;27.40;43.34;101328.16;5057664;28;47634;-65
2022/08/26 10:01:40;;;;;;;;;11.75;8.75;;;;;27.49;43.59;101345.56;5070069;28;45317;-67
2022/08/26 10:04:11;;;;;;;;;10.50;8.00;;;;;27.52;43.25;101339.13;5066175;28;45406;-67
2022/08/26 10:07:01;;;;;;;;;9.00;8.00;;;;;27.63;43.13;101329.47;5077612;28;45521;-69
2022/08/26 10:09:28;;;;;;;;;6.75;6.25;;;;;27.89;42.65;101325.22;5073240;27;46152;-66
2022/08/26 10:12:08;;;;;;;;;6.00;5.50;;;;;27.83;42.33;101303.19;5073667;27;45425;-65
2022/08/26 10:14:40;;;;;;;;;9.75;8.25;;;;;27.92;41.98;101327.72;5076563;27;45342;-72
2022/08/26 10:17:30;;;;;;;;;7.00;7.00;;;;;27.83;42.43;101335.50;5075638;27;45439;-67
2022/08/26 10:20:10;;;;;;;;;7.50;7.50;;;;;27.71;42.65;101326.31;5056401;28;47734;-68
2022/08/26 10:22:51;;;;;;;;;9.00;8.00;;;;;27.77;42.06;101335.84;5073964;28;45685;-67
2022/08/26 10:25:22;;;;;;;;;7.50;6.50;;;;;27.81;42.12;101323.91;5073535;28;45648;-70
2022/08/26 10:28:10;;;;;;;;;6.25;5.75;;;;;28.08;42.07;101307.94;5074942;27;45455;-68
2022/08/26 10:30:50;;;;;;;;;8.50;8.50;;;;;28.42;41.27;101324.66;5063063;28;46352;-66
2022/08/26 10:33:17;;;;;;;;;11.00;9.75;;;;;28.62;40.11;101320.72;5076599;27;45325;-75
2022/08/26 10:35:55;;;;;;;;;9.75;8.50;;;;;28.81;39.94;101323.06;5062412;28;45590;-72
2022/08/26 10:38:33;;;;;;;;;8.50;7.50;;;;;28.96;39.19;101327.44;5078972;28;45417;-72
2022/08/26 10:41:19;;;;;;;;;7.75;7.50;;;;;28.73;39.50;101288.53;5079030;28;45412;-66
2022/08/26 10:43:54;;;;;;;;;7.00;6.00;;;;;29.04;39.07;101319.72;5078001;27;45376;-71
2022/08/26 10:46:22;;;;;;;;;5.50;5.25;;;;;29.27;38.70;101318.22;5079478;27;45553;-75
2022/08/26 10:48:51;;;;;;;;;5.75;5.75;;;;;29.46;38.78;101319.66;5087508;28;45413;-69
2022/08/26 10:51:27;;;;;;;;;6.75;5.75;;;;;29.33;38.77;101306.16;5067650;28;46228;-66
2022/08/26 10:54:06;;;;;;;;;7.00;7.00;;;;;29.21;38.82;101315.06;5059480;28;45528;-65
2022/08/26 10:57:01;;;;;;;;;10.00;8.50;;;;;28.98;38.40;101308.50;5077292;27;45556;-65
2022/08/26 10:59:54;;;;;;;;;12.75;9.00;;;;;28.74;38.28;101292.97;5057954;28;45286;-67
2022/08/26 11:02:23;;;;;;;;;6.75;6.75;;;;;28.75;39.26;101319.78;5075520;27;46579;-66
2022/08/26 11:04:57;;;;;;;;;9.50;8.00;;;;;28.70;38.92;101294.13;5079893;27;45430;-67
2022/08/26 11:07:47;;;;;;;;;9.00;8.50;;;;;28.76;38.68;101242.53;5080110;28;45436;-66
2022/08/26 11:10:16;;;;;;;;;7.50;7.50;;;;;29.48;38.13;101310.47;5076280;28;45567;-68
2022/08/26 11:12:41;;;;;;;;;7.00;6.50;;;;;29.76;37.23;101301.38;5037988;28;47476;-67
2022/08/26 11:15:28;;;;;;;;;7.50;6.00;;;;;29.88;37.03;101307.75;5075231;28;45345;-67
2022/08/26 11:17:59;;;;;;;;;8.00;6.00;;;;;30.10;36.83;101304.38;5076464;28;45650;-67
2022/08/26 11:20:38;;;;;;;;;7.50;6.00;;;;;30.36;36.52;101307.09;5049154;28;45380;-67
2022/08/26 11:23:22;;;;;;;;;8.00;8.00;;;;;30.42;35.09;101294.00;5075163;28;46241;-66
2022/08/26 11:25:59;;;;;;;;;8.25;8.25;;;;;30.50;35.34;101306.09;5064731;28;45331;-71
2022/08/26 11:28:43;;;;;;;;;6.25;6.25;;;;;30.43;35.08;101305.66;5057767;28;45524;-67
2022/08/26 11:31:29;;;;;;;;;8.75;8.00;;;;;30.14;35.07;101288.84;5060935;28;45290;-70
2022/08/26 11:34:07;;;;;;;;;8.25;8.00;;;;;30.14;35.48;101305.03;5077514;27;46127;-67
2022/08/26 11:36:38;;;;;;;;;6.60;5.40;;;;;30.28;35.34;101268.94;5070012;28;45454;-67
2022/08/26 11:39:30;;;;;;;;;5.75;5.25;;;;;30.62;34.82;101272.75;5080241;27;45890;-69
2022/08/26 11:42:30;;;;;;;;;5.50;5.50;;;;;30.89;34.12;101260.88;5076797;28;45394;-70